<?xml version="1.0" encoding="UTF-8" standalone="no" ?>
<gpx xmlns="http://www.topografix.com/GPX/1/1" xmlns:xsi="http://www.w3.org/2001/XMLSchema-instance" xsi:schemaLocation="http://www.topografix.com/GPX/1/1 http://www.topografix.com/GPX/1/1/gpx.xsd" version="1.1" creator="VisuGPX - https://www.visugpx.com">
  <metadata>
    <name>Pont du Casse 9.9 km</name>
  </metadata>
  <trk>
    <name><![CDATA[2024 07 11 Pont du Casse Pierre 10 km]]></name>
    <extensions>
      <line xmlns="http://www.topografix.com/GPX/gpx_style/0/2">
        <color>0000FF</color>
        <width>4</width>
      </line>
    </extensions>
    <trkseg>
      <trkpt lat="44.23214" lon="0.68207">
        <ele>68</ele>
        <time>2024-07-11T07:02:37.383Z</time>
      </trkpt>
      <trkpt lat="44.23196" lon="0.68218">
        <ele>68</ele>
        <time>2024-07-11T07:02:45.383Z</time>
      </trkpt>
      <trkpt lat="44.23193" lon="0.68194">
        <ele>68.2</ele>
        <time>2024-07-11T07:03:01.383Z</time>
      </trkpt>
      <trkpt lat="44.23188" lon="0.6819">
        <ele>68.9</ele>
        <time>2024-07-11T07:03:05.383Z</time>
      </trkpt>
      <trkpt lat="44.23183" lon="0.68191">
        <ele>69.5</ele>
        <time>2024-07-11T07:03:09.383Z</time>
      </trkpt>
      <trkpt lat="44.23175" lon="0.68197">
        <ele>70.9</ele>
        <time>2024-07-11T07:03:17.383Z</time>
      </trkpt>
      <trkpt lat="44.23161" lon="0.68209">
        <ele>73.6</ele>
        <time>2024-07-11T07:03:33.383Z</time>
      </trkpt>
      <trkpt lat="44.23145" lon="0.68215">
        <ele>76.3</ele>
        <time>2024-07-11T07:03:49.383Z</time>
      </trkpt>
      <trkpt lat="44.23127" lon="0.68255">
        <ele>80.6</ele>
        <time>2024-07-11T07:04:21.383Z</time>
      </trkpt>
      <trkpt lat="44.2312" lon="0.68276">
        <ele>81.9</ele>
        <time>2024-07-11T07:04:54.543Z</time>
      </trkpt>
      <trkpt lat="44.23093" lon="0.68322">
        <ele>86.6</ele>
        <time>2024-07-11T07:05:34.544Z</time>
      </trkpt>
      <trkpt lat="44.23077" lon="0.68334">
        <ele>87.6</ele>
        <time>2024-07-11T07:05:50.544Z</time>
      </trkpt>
      <trkpt lat="44.23065" lon="0.68353">
        <ele>89.5</ele>
        <time>2024-07-11T07:06:10.544Z</time>
      </trkpt>
      <trkpt lat="44.2305" lon="0.68365">
        <ele>89.9</ele>
        <time>2024-07-11T07:06:26.543Z</time>
      </trkpt>
      <trkpt lat="44.23032" lon="0.68372">
        <ele>89.4</ele>
        <time>2024-07-11T07:06:42.543Z</time>
      </trkpt>
      <trkpt lat="44.22973" lon="0.68382">
        <ele>91.5</ele>
        <time>2024-07-11T07:07:34.543Z</time>
      </trkpt>
      <trkpt lat="44.22937" lon="0.68384">
        <ele>93.3</ele>
        <time>2024-07-11T07:08:06.544Z</time>
      </trkpt>
      <trkpt lat="44.22927" lon="0.68387">
        <ele>94.2</ele>
        <time>2024-07-11T07:08:14.544Z</time>
      </trkpt>
      <trkpt lat="44.22909" lon="0.6838">
        <ele>95</ele>
        <time>2024-07-11T07:08:49.676Z</time>
      </trkpt>
      <trkpt lat="44.22898" lon="0.68377">
        <ele>95.8</ele>
        <time>2024-07-11T07:08:57.676Z</time>
      </trkpt>
      <trkpt lat="44.22879" lon="0.6836">
        <ele>98.4</ele>
        <time>2024-07-11T07:09:13.676Z</time>
      </trkpt>
      <trkpt lat="44.22875" lon="0.6835">
        <ele>99.4</ele>
        <time>2024-07-11T07:09:21.676Z</time>
      </trkpt>
      <trkpt lat="44.22874" lon="0.68329">
        <ele>99.1</ele>
        <time>2024-07-11T07:09:37.676Z</time>
      </trkpt>
      <trkpt lat="44.2287" lon="0.68318">
        <ele>99.4</ele>
        <time>2024-07-11T07:09:45.676Z</time>
      </trkpt>
      <trkpt lat="44.2286" lon="0.6831">
        <ele>100.5</ele>
        <time>2024-07-11T07:09:53.676Z</time>
      </trkpt>
      <trkpt lat="44.22855" lon="0.68308">
        <ele>101.8</ele>
        <time>2024-07-11T07:09:57.676Z</time>
      </trkpt>
      <trkpt lat="44.22844" lon="0.68285">
        <ele>102.8</ele>
        <time>2024-07-11T07:10:13.676Z</time>
      </trkpt>
      <trkpt lat="44.22812" lon="0.68187">
        <ele>99.7</ele>
        <time>2024-07-11T07:11:17.676Z</time>
      </trkpt>
      <trkpt lat="44.2279" lon="0.68162">
        <ele>98.6</ele>
        <time>2024-07-11T07:11:49.676Z</time>
      </trkpt>
      <trkpt lat="44.22778" lon="0.68152">
        <ele>98</ele>
        <time>2024-07-11T07:12:01.676Z</time>
      </trkpt>
      <trkpt lat="44.2277" lon="0.68137">
        <ele>96.7</ele>
        <time>2024-07-11T07:12:17.676Z</time>
      </trkpt>
      <trkpt lat="44.2277" lon="0.68141">
        <ele>97.4</ele>
        <time>2024-07-11T07:12:21.676Z</time>
      </trkpt>
      <trkpt lat="44.22751" lon="0.6811">
        <ele>94.5</ele>
        <time>2024-07-11T07:12:37.676Z</time>
      </trkpt>
      <trkpt lat="44.22743" lon="0.68101">
        <ele>93.2</ele>
        <time>2024-07-11T07:12:45.676Z</time>
      </trkpt>
      <trkpt lat="44.22709" lon="0.68083">
        <ele>91.7</ele>
        <time>2024-07-11T07:13:17.676Z</time>
      </trkpt>
      <trkpt lat="44.22687" lon="0.68079">
        <ele>91.6</ele>
        <time>2024-07-11T07:13:41.676Z</time>
      </trkpt>
      <trkpt lat="44.22671" lon="0.68067">
        <ele>87.5</ele>
        <time>2024-07-11T07:13:57.676Z</time>
      </trkpt>
      <trkpt lat="44.22666" lon="0.68061">
        <ele>85.5</ele>
        <time>2024-07-11T07:14:03.676Z</time>
      </trkpt>
      <trkpt lat="44.22655" lon="0.68057">
        <ele>84.1</ele>
        <time>2024-07-11T07:14:11.676Z</time>
      </trkpt>
      <trkpt lat="44.22639" lon="0.6804">
        <ele>80.2</ele>
        <time>2024-07-11T07:14:27.676Z</time>
      </trkpt>
      <trkpt lat="44.2263" lon="0.68019">
        <ele>77.8</ele>
        <time>2024-07-11T07:14:43.676Z</time>
      </trkpt>
      <trkpt lat="44.22617" lon="0.67965">
        <ele>79.3</ele>
        <time>2024-07-11T07:15:15.676Z</time>
      </trkpt>
      <trkpt lat="44.2261" lon="0.67947">
        <ele>80.2</ele>
        <time>2024-07-11T07:15:41.169Z</time>
      </trkpt>
      <trkpt lat="44.22566" lon="0.6797">
        <ele>84.3</ele>
        <time>2024-07-11T07:16:29.169Z</time>
      </trkpt>
      <trkpt lat="44.22518" lon="0.67975">
        <ele>87.2</ele>
        <time>2024-07-11T07:17:26.334Z</time>
      </trkpt>
      <trkpt lat="44.22452" lon="0.67964">
        <ele>92.7</ele>
        <time>2024-07-11T07:18:41.552Z</time>
      </trkpt>
      <trkpt lat="44.2242" lon="0.67962">
        <ele>96.4</ele>
        <time>2024-07-11T07:19:13.552Z</time>
      </trkpt>
      <trkpt lat="44.22403" lon="0.67958">
        <ele>98.3</ele>
        <time>2024-07-11T07:19:29.552Z</time>
      </trkpt>
      <trkpt lat="44.22386" lon="0.67958">
        <ele>100.1</ele>
        <time>2024-07-11T07:19:45.552Z</time>
      </trkpt>
      <trkpt lat="44.22372" lon="0.6797">
        <ele>102.2</ele>
        <time>2024-07-11T07:20:01.552Z</time>
      </trkpt>
      <trkpt lat="44.22349" lon="0.68002">
        <ele>105.1</ele>
        <time>2024-07-11T07:20:33.552Z</time>
      </trkpt>
      <trkpt lat="44.22326" lon="0.68027">
        <ele>108.6</ele>
        <time>2024-07-11T07:21:05.552Z</time>
      </trkpt>
      <trkpt lat="44.22302" lon="0.6804">
        <ele>114.8</ele>
        <time>2024-07-11T07:21:49.967Z</time>
      </trkpt>
      <trkpt lat="44.22293" lon="0.6806">
        <ele>117.9</ele>
        <time>2024-07-11T07:22:21.967Z</time>
      </trkpt>
      <trkpt lat="44.22276" lon="0.68086">
        <ele>122.6</ele>
        <time>2024-07-11T07:22:53.967Z</time>
      </trkpt>
      <trkpt lat="44.22254" lon="0.6811">
        <ele>126.4</ele>
        <time>2024-07-11T07:23:25.967Z</time>
      </trkpt>
      <trkpt lat="44.22245" lon="0.68128">
        <ele>125.5</ele>
        <time>2024-07-11T07:23:41.967Z</time>
      </trkpt>
      <trkpt lat="44.22203" lon="0.68165">
        <ele>128.1</ele>
        <time>2024-07-11T07:24:29.967Z</time>
      </trkpt>
      <trkpt lat="44.22179" lon="0.682">
        <ele>126.6</ele>
        <time>2024-07-11T07:25:01.967Z</time>
      </trkpt>
      <trkpt lat="44.22172" lon="0.68208">
        <ele>127.2</ele>
        <time>2024-07-11T07:25:09.967Z</time>
      </trkpt>
      <trkpt lat="44.22144" lon="0.68257">
        <ele>128.6</ele>
        <time>2024-07-11T07:26:01.967Z</time>
      </trkpt>
      <trkpt lat="44.22144" lon="0.68255">
        <ele>128.8</ele>
        <time>2024-07-11T07:26:05.967Z</time>
      </trkpt>
      <trkpt lat="44.22137" lon="0.68266">
        <ele>130.8</ele>
        <time>2024-07-11T07:27:54.710Z</time>
      </trkpt>
      <trkpt lat="44.22128" lon="0.68308">
        <ele>133.2</ele>
        <time>2024-07-11T07:33:24.313Z</time>
      </trkpt>
      <trkpt lat="44.22128" lon="0.68335">
        <ele>136.4</ele>
        <time>2024-07-11T07:33:44.313Z</time>
      </trkpt>
      <trkpt lat="44.22123" lon="0.68343">
        <ele>139.3</ele>
        <time>2024-07-11T07:34:00.313Z</time>
      </trkpt>
      <trkpt lat="44.22129" lon="0.68378">
        <ele>140.6</ele>
        <time>2024-07-11T07:34:24.313Z</time>
      </trkpt>
      <trkpt lat="44.22123" lon="0.68399">
        <ele>145</ele>
        <time>2024-07-11T07:34:40.313Z</time>
      </trkpt>
      <trkpt lat="44.22101" lon="0.68414">
        <ele>150</ele>
        <time>2024-07-11T07:35:51.329Z</time>
      </trkpt>
      <trkpt lat="44.22066" lon="0.68433">
        <ele>153.3</ele>
        <time>2024-07-11T07:36:35.329Z</time>
      </trkpt>
      <trkpt lat="44.22061" lon="0.68431">
        <ele>153.6</ele>
        <time>2024-07-11T07:36:39.329Z</time>
      </trkpt>
      <trkpt lat="44.22042" lon="0.68442">
        <ele>154</ele>
        <time>2024-07-11T07:37:03.329Z</time>
      </trkpt>
      <trkpt lat="44.22028" lon="0.68445">
        <ele>154</ele>
        <time>2024-07-11T07:37:15.329Z</time>
      </trkpt>
      <trkpt lat="44.22016" lon="0.68454">
        <ele>154.8</ele>
        <time>2024-07-11T07:37:27.329Z</time>
      </trkpt>
      <trkpt lat="44.22007" lon="0.68454">
        <ele>155.5</ele>
        <time>2024-07-11T07:37:35.329Z</time>
      </trkpt>
      <trkpt lat="44.21982" lon="0.68471">
        <ele>156.7</ele>
        <time>2024-07-11T07:37:59.329Z</time>
      </trkpt>
      <trkpt lat="44.21973" lon="0.68472">
        <ele>157</ele>
        <time>2024-07-11T07:38:07.329Z</time>
      </trkpt>
      <trkpt lat="44.21966" lon="0.68476">
        <ele>157</ele>
        <time>2024-07-11T07:38:20.329Z</time>
      </trkpt>
      <trkpt lat="44.21948" lon="0.68476">
        <ele>157.6</ele>
        <time>2024-07-11T07:38:36.329Z</time>
      </trkpt>
      <trkpt lat="44.21935" lon="0.6848">
        <ele>158.3</ele>
        <time>2024-07-11T07:38:48.329Z</time>
      </trkpt>
      <trkpt lat="44.21932" lon="0.68478">
        <ele>158.7</ele>
        <time>2024-07-11T07:38:52.329Z</time>
      </trkpt>
      <trkpt lat="44.21918" lon="0.68483">
        <ele>159.8</ele>
        <time>2024-07-11T07:39:08.329Z</time>
      </trkpt>
      <trkpt lat="44.21912" lon="0.6847">
        <ele>160.2</ele>
        <time>2024-07-11T07:39:50.220Z</time>
      </trkpt>
      <trkpt lat="44.2191" lon="0.68456">
        <ele>159.2</ele>
        <time>2024-07-11T07:40:26.331Z</time>
      </trkpt>
      <trkpt lat="44.21907" lon="0.68451">
        <ele>158.9</ele>
        <time>2024-07-11T07:40:42.331Z</time>
      </trkpt>
      <trkpt lat="44.21895" lon="0.68448">
        <ele>159.1</ele>
        <time>2024-07-11T07:40:58.331Z</time>
      </trkpt>
      <trkpt lat="44.21882" lon="0.6845">
        <ele>160.3</ele>
        <time>2024-07-11T07:41:14.331Z</time>
      </trkpt>
      <trkpt lat="44.21869" lon="0.68427">
        <ele>161.3</ele>
        <time>2024-07-11T07:41:46.331Z</time>
      </trkpt>
      <trkpt lat="44.21866" lon="0.68402">
        <ele>162.1</ele>
        <time>2024-07-11T07:42:06.331Z</time>
      </trkpt>
      <trkpt lat="44.2184" lon="0.68366">
        <ele>167</ele>
        <time>2024-07-11T07:42:46.838Z</time>
      </trkpt>
      <trkpt lat="44.21837" lon="0.68367">
        <ele>167.5</ele>
        <time>2024-07-11T07:42:54.838Z</time>
      </trkpt>
      <trkpt lat="44.21824" lon="0.68372">
        <ele>169</ele>
        <time>2024-07-11T07:43:15.171Z</time>
      </trkpt>
      <trkpt lat="44.21819" lon="0.68379">
        <ele>169.6</ele>
        <time>2024-07-11T07:43:23.171Z</time>
      </trkpt>
      <trkpt lat="44.21814" lon="0.68379">
        <ele>170.1</ele>
        <time>2024-07-11T07:43:27.171Z</time>
      </trkpt>
      <trkpt lat="44.21794" lon="0.68361">
        <ele>171.8</ele>
        <time>2024-07-11T07:43:43.171Z</time>
      </trkpt>
      <trkpt lat="44.21785" lon="0.68356">
        <ele>172.5</ele>
        <time>2024-07-11T07:43:55.171Z</time>
      </trkpt>
      <trkpt lat="44.21781" lon="0.6835">
        <ele>172.8</ele>
        <time>2024-07-11T07:43:59.171Z</time>
      </trkpt>
      <trkpt lat="44.21776" lon="0.68349">
        <ele>173</ele>
        <time>2024-07-11T07:44:03.171Z</time>
      </trkpt>
      <trkpt lat="44.21773" lon="0.68346">
        <ele>173.1</ele>
        <time>2024-07-11T07:44:07.171Z</time>
      </trkpt>
      <trkpt lat="44.21793" lon="0.68389">
        <ele>171.9</ele>
        <time>2024-07-11T07:44:55.171Z</time>
      </trkpt>
      <trkpt lat="44.21798" lon="0.68404">
        <ele>171</ele>
        <time>2024-07-11T07:45:07.171Z</time>
      </trkpt>
      <trkpt lat="44.218" lon="0.68404">
        <ele>170.8</ele>
        <time>2024-07-11T07:45:11.171Z</time>
      </trkpt>
      <trkpt lat="44.21799" lon="0.68415">
        <ele>170.5</ele>
        <time>2024-07-11T07:45:19.171Z</time>
      </trkpt>
      <trkpt lat="44.21804" lon="0.68442">
        <ele>169.3</ele>
        <time>2024-07-11T07:45:35.171Z</time>
      </trkpt>
      <trkpt lat="44.21801" lon="0.68458">
        <ele>169.8</ele>
        <time>2024-07-11T07:45:43.171Z</time>
      </trkpt>
      <trkpt lat="44.21794" lon="0.6847">
        <ele>170.4</ele>
        <time>2024-07-11T07:45:51.171Z</time>
      </trkpt>
      <trkpt lat="44.21786" lon="0.68477">
        <ele>170.5</ele>
        <time>2024-07-11T07:45:59.171Z</time>
      </trkpt>
      <trkpt lat="44.21766" lon="0.68476">
        <ele>171.2</ele>
        <time>2024-07-11T07:46:15.171Z</time>
      </trkpt>
      <trkpt lat="44.21748" lon="0.68478">
        <ele>171.5</ele>
        <time>2024-07-11T07:46:31.171Z</time>
      </trkpt>
      <trkpt lat="44.21717" lon="0.68494">
        <ele>173.4</ele>
        <time>2024-07-11T07:47:12.268Z</time>
      </trkpt>
      <trkpt lat="44.21711" lon="0.68503">
        <ele>173.1</ele>
        <time>2024-07-11T07:47:20.268Z</time>
      </trkpt>
      <trkpt lat="44.21702" lon="0.68551">
        <ele>172.2</ele>
        <time>2024-07-11T07:47:52.268Z</time>
      </trkpt>
      <trkpt lat="44.21692" lon="0.68573">
        <ele>173</ele>
        <time>2024-07-11T07:48:08.268Z</time>
      </trkpt>
      <trkpt lat="44.21682" lon="0.6858">
        <ele>173</ele>
        <time>2024-07-11T07:48:16.268Z</time>
      </trkpt>
      <trkpt lat="44.21673" lon="0.68581">
        <ele>173</ele>
        <time>2024-07-11T07:48:24.268Z</time>
      </trkpt>
      <trkpt lat="44.21669" lon="0.68578">
        <ele>173</ele>
        <time>2024-07-11T07:48:32.268Z</time>
      </trkpt>
      <trkpt lat="44.21654" lon="0.68488">
        <ele>171.1</ele>
        <time>2024-07-11T07:50:25.881Z</time>
      </trkpt>
      <trkpt lat="44.21625" lon="0.68404">
        <ele>171.7</ele>
        <time>2024-07-11T07:52:18.846Z</time>
      </trkpt>
      <trkpt lat="44.21583" lon="0.6831">
        <ele>171.1</ele>
        <time>2024-07-11T07:53:22.846Z</time>
      </trkpt>
      <trkpt lat="44.21529" lon="0.68167">
        <ele>168</ele>
        <time>2024-07-11T07:54:58.846Z</time>
      </trkpt>
      <trkpt lat="44.21497" lon="0.6806">
        <ele>163.3</ele>
        <time>2024-07-11T07:56:02.846Z</time>
      </trkpt>
      <trkpt lat="44.21478" lon="0.68003">
        <ele>159.7</ele>
        <time>2024-07-11T07:56:34.846Z</time>
      </trkpt>
      <trkpt lat="44.21443" lon="0.67931">
        <ele>156.9</ele>
        <time>2024-07-11T07:57:22.846Z</time>
      </trkpt>
      <trkpt lat="44.21403" lon="0.6783">
        <ele>155.4</ele>
        <time>2024-07-11T07:58:30.846Z</time>
      </trkpt>
      <trkpt lat="44.21396" lon="0.67828">
        <ele>155.2</ele>
        <time>2024-07-11T07:58:38.846Z</time>
      </trkpt>
      <trkpt lat="44.21388" lon="0.6783">
        <ele>155</ele>
        <time>2024-07-11T07:58:46.846Z</time>
      </trkpt>
      <trkpt lat="44.21325" lon="0.67876">
        <ele>157.5</ele>
        <time>2024-07-11T07:59:50.846Z</time>
      </trkpt>
      <trkpt lat="44.21268" lon="0.6791">
        <ele>159.9</ele>
        <time>2024-07-11T08:00:46.846Z</time>
      </trkpt>
      <trkpt lat="44.21236" lon="0.67923">
        <ele>160.7</ele>
        <time>2024-07-11T08:01:18.846Z</time>
      </trkpt>
      <trkpt lat="44.2121" lon="0.67925">
        <ele>159.5</ele>
        <time>2024-07-11T08:01:42.846Z</time>
      </trkpt>
      <trkpt lat="44.21202" lon="0.6793">
        <ele>158.7</ele>
        <time>2024-07-11T08:01:50.846Z</time>
      </trkpt>
      <trkpt lat="44.21195" lon="0.67939">
        <ele>157.4</ele>
        <time>2024-07-11T08:01:58.846Z</time>
      </trkpt>
      <trkpt lat="44.21195" lon="0.67951">
        <ele>157</ele>
        <time>2024-07-11T08:02:06.846Z</time>
      </trkpt>
      <trkpt lat="44.21155" lon="0.67989">
        <ele>154.1</ele>
        <time>2024-07-11T08:02:46.846Z</time>
      </trkpt>
      <trkpt lat="44.21136" lon="0.68015">
        <ele>151.8</ele>
        <time>2024-07-11T08:03:10.846Z</time>
      </trkpt>
      <trkpt lat="44.21117" lon="0.68058">
        <ele>151.1</ele>
        <time>2024-07-11T08:03:42.846Z</time>
      </trkpt>
      <trkpt lat="44.21104" lon="0.68077">
        <ele>149.9</ele>
        <time>2024-07-11T08:03:58.846Z</time>
      </trkpt>
      <trkpt lat="44.21087" lon="0.68123">
        <ele>150</ele>
        <time>2024-07-11T08:04:30.846Z</time>
      </trkpt>
      <trkpt lat="44.21087" lon="0.68131">
        <ele>150</ele>
        <time>2024-07-11T08:04:34.846Z</time>
      </trkpt>
      <trkpt lat="44.21073" lon="0.68153">
        <ele>150.2</ele>
        <time>2024-07-11T08:04:50.846Z</time>
      </trkpt>
      <trkpt lat="44.2107" lon="0.68164">
        <ele>150.4</ele>
        <time>2024-07-11T08:04:58.846Z</time>
      </trkpt>
      <trkpt lat="44.21111" lon="0.6822">
        <ele>151.9</ele>
        <time>2024-07-11T08:05:46.846Z</time>
      </trkpt>
      <trkpt lat="44.21122" lon="0.6824">
        <ele>152.3</ele>
        <time>2024-07-11T08:06:02.846Z</time>
      </trkpt>
      <trkpt lat="44.21135" lon="0.68304">
        <ele>152.2</ele>
        <time>2024-07-11T08:07:44.986Z</time>
      </trkpt>
      <trkpt lat="44.21144" lon="0.68338">
        <ele>152.7</ele>
        <time>2024-07-11T08:08:40.751Z</time>
      </trkpt>
      <trkpt lat="44.21162" lon="0.68426">
        <ele>153.5</ele>
        <time>2024-07-11T08:09:28.751Z</time>
      </trkpt>
      <trkpt lat="44.21172" lon="0.68456">
        <ele>154.1</ele>
        <time>2024-07-11T08:09:44.751Z</time>
      </trkpt>
      <trkpt lat="44.21186" lon="0.68528">
        <ele>155</ele>
        <time>2024-07-11T08:10:24.750Z</time>
      </trkpt>
      <trkpt lat="44.21183" lon="0.68556">
        <ele>155</ele>
        <time>2024-07-11T08:10:40.751Z</time>
      </trkpt>
      <trkpt lat="44.21198" lon="0.68771">
        <ele>156</ele>
        <time>2024-07-11T08:12:48.750Z</time>
      </trkpt>
      <trkpt lat="44.21197" lon="0.68785">
        <ele>156</ele>
        <time>2024-07-11T08:12:56.751Z</time>
      </trkpt>
      <trkpt lat="44.21202" lon="0.68841">
        <ele>156.1</ele>
        <time>2024-07-11T08:13:28.750Z</time>
      </trkpt>
      <trkpt lat="44.21211" lon="0.68892">
        <ele>156.7</ele>
        <time>2024-07-11T08:14:00.751Z</time>
      </trkpt>
      <trkpt lat="44.21231" lon="0.68961">
        <ele>159.4</ele>
        <time>2024-07-11T08:14:48.750Z</time>
      </trkpt>
      <trkpt lat="44.21231" lon="0.68986">
        <ele>159</ele>
        <time>2024-07-11T08:15:11.789Z</time>
      </trkpt>
      <trkpt lat="44.21252" lon="0.69074">
        <ele>156.6</ele>
        <time>2024-07-11T08:16:15.789Z</time>
      </trkpt>
      <trkpt lat="44.21261" lon="0.69124">
        <ele>152.8</ele>
        <time>2024-07-11T08:16:55.789Z</time>
      </trkpt>
      <trkpt lat="44.21272" lon="0.69143">
        <ele>152</ele>
        <time>2024-07-11T08:17:11.789Z</time>
      </trkpt>
      <trkpt lat="44.21299" lon="0.69171">
        <ele>152.5</ele>
        <time>2024-07-11T08:17:49.263Z</time>
      </trkpt>
      <trkpt lat="44.21314" lon="0.69183">
        <ele>151.4</ele>
        <time>2024-07-11T08:18:05.263Z</time>
      </trkpt>
      <trkpt lat="44.21333" lon="0.69186">
        <ele>150</ele>
        <time>2024-07-11T08:18:21.263Z</time>
      </trkpt>
      <trkpt lat="44.21353" lon="0.69183">
        <ele>150</ele>
        <time>2024-07-11T08:18:37.263Z</time>
      </trkpt>
      <trkpt lat="44.21388" lon="0.69162">
        <ele>154.1</ele>
        <time>2024-07-11T08:19:09.263Z</time>
      </trkpt>
      <trkpt lat="44.21424" lon="0.69173">
        <ele>152.9</ele>
        <time>2024-07-11T08:19:41.263Z</time>
      </trkpt>
      <trkpt lat="44.21457" lon="0.69176">
        <ele>155.1</ele>
        <time>2024-07-11T08:20:05.263Z</time>
      </trkpt>
      <trkpt lat="44.21467" lon="0.69184">
        <ele>155.2</ele>
        <time>2024-07-11T08:20:13.263Z</time>
      </trkpt>
      <trkpt lat="44.21484" lon="0.6923">
        <ele>156.2</ele>
        <time>2024-07-11T08:20:45.263Z</time>
      </trkpt>
      <trkpt lat="44.21543" lon="0.69349">
        <ele>155.6</ele>
        <time>2024-07-11T08:22:13.263Z</time>
      </trkpt>
      <trkpt lat="44.2159" lon="0.69411">
        <ele>150.6</ele>
        <time>2024-07-11T08:23:17.263Z</time>
      </trkpt>
      <trkpt lat="44.21599" lon="0.69419">
        <ele>151.1</ele>
        <time>2024-07-11T08:23:25.263Z</time>
      </trkpt>
      <trkpt lat="44.21603" lon="0.69432">
        <ele>150.9</ele>
        <time>2024-07-11T08:23:41.263Z</time>
      </trkpt>
      <trkpt lat="44.21604" lon="0.69447">
        <ele>150.2</ele>
        <time>2024-07-11T08:23:57.263Z</time>
      </trkpt>
      <trkpt lat="44.21587" lon="0.69489">
        <ele>149.5</ele>
        <time>2024-07-11T08:24:44.390Z</time>
      </trkpt>
      <trkpt lat="44.21556" lon="0.6952">
        <ele>151.6</ele>
        <time>2024-07-11T08:25:16.390Z</time>
      </trkpt>
      <trkpt lat="44.21524" lon="0.69541">
        <ele>151.7</ele>
        <time>2024-07-11T08:25:48.390Z</time>
      </trkpt>
      <trkpt lat="44.21471" lon="0.69565">
        <ele>152.7</ele>
        <time>2024-07-11T08:26:36.390Z</time>
      </trkpt>
      <trkpt lat="44.21471" lon="0.69583">
        <ele>154</ele>
        <time>2024-07-11T08:26:52.390Z</time>
      </trkpt>
      <trkpt lat="44.21465" lon="0.69625">
        <ele>157</ele>
        <time>2024-07-11T08:27:24.390Z</time>
      </trkpt>
      <trkpt lat="44.2146" lon="0.69641">
        <ele>158.1</ele>
        <time>2024-07-11T08:27:40.390Z</time>
      </trkpt>
      <trkpt lat="44.2146" lon="0.69648">
        <ele>158.7</ele>
        <time>2024-07-11T08:29:00.536Z</time>
      </trkpt>
      <trkpt lat="44.21453" lon="0.69663">
        <ele>159.8</ele>
        <time>2024-07-11T08:29:12.536Z</time>
      </trkpt>
      <trkpt lat="44.21451" lon="0.69677">
        <ele>160.8</ele>
        <time>2024-07-11T08:29:24.926Z</time>
      </trkpt>
      <trkpt lat="44.21445" lon="0.69688">
        <ele>161.5</ele>
        <time>2024-07-11T08:29:32.926Z</time>
      </trkpt>
      <trkpt lat="44.21442" lon="0.69706">
        <ele>162.8</ele>
        <time>2024-07-11T08:29:48.926Z</time>
      </trkpt>
      <trkpt lat="44.21443" lon="0.69717">
        <ele>163.6</ele>
        <time>2024-07-11T08:30:10.402Z</time>
      </trkpt>
      <trkpt lat="44.21435" lon="0.69739">
        <ele>165.3</ele>
        <time>2024-07-11T08:30:26.402Z</time>
      </trkpt>
      <trkpt lat="44.21407" lon="0.69774">
        <ele>166</ele>
        <time>2024-07-11T08:30:58.402Z</time>
      </trkpt>
      <trkpt lat="44.21371" lon="0.6981">
        <ele>167</ele>
        <time>2024-07-11T08:31:30.402Z</time>
      </trkpt>
      <trkpt lat="44.2131" lon="0.69883">
        <ele>166.2</ele>
        <time>2024-07-11T08:32:34.402Z</time>
      </trkpt>
      <trkpt lat="44.21277" lon="0.69918">
        <ele>163.9</ele>
        <time>2024-07-11T08:33:06.402Z</time>
      </trkpt>
      <trkpt lat="44.21227" lon="0.69979">
        <ele>159.3</ele>
        <time>2024-07-11T08:34:10.402Z</time>
      </trkpt>
      <trkpt lat="44.21227" lon="0.69987">
        <ele>159.3</ele>
        <time>2024-07-11T08:34:30.174Z</time>
      </trkpt>
      <trkpt lat="44.21319" lon="0.70108">
        <ele>162.6</ele>
        <time>2024-07-11T08:36:22.174Z</time>
      </trkpt>
      <trkpt lat="44.21348" lon="0.70134">
        <ele>164.2</ele>
        <time>2024-07-11T08:36:54.174Z</time>
      </trkpt>
      <trkpt lat="44.21381" lon="0.70147">
        <ele>164.4</ele>
        <time>2024-07-11T08:37:26.174Z</time>
      </trkpt>
      <trkpt lat="44.21399" lon="0.7015">
        <ele>164.1</ele>
        <time>2024-07-11T08:37:42.174Z</time>
      </trkpt>
      <trkpt lat="44.21418" lon="0.70148">
        <ele>163.9</ele>
        <time>2024-07-11T08:37:58.174Z</time>
      </trkpt>
      <trkpt lat="44.2149" lon="0.70125">
        <ele>161.4</ele>
        <time>2024-07-11T08:39:02.174Z</time>
      </trkpt>
      <trkpt lat="44.21528" lon="0.70121">
        <ele>161.6</ele>
        <time>2024-07-11T08:39:34.174Z</time>
      </trkpt>
      <trkpt lat="44.21569" lon="0.70107">
        <ele>161.3</ele>
        <time>2024-07-11T08:40:22.174Z</time>
      </trkpt>
      <trkpt lat="44.21582" lon="0.70097">
        <ele>161.1</ele>
        <time>2024-07-11T08:40:38.174Z</time>
      </trkpt>
      <trkpt lat="44.21649" lon="0.7006">
        <ele>160.1</ele>
        <time>2024-07-11T08:41:42.174Z</time>
      </trkpt>
      <trkpt lat="44.21664" lon="0.70055">
        <ele>160.1</ele>
        <time>2024-07-11T08:41:58.174Z</time>
      </trkpt>
      <trkpt lat="44.21675" lon="0.70045">
        <ele>159.3</ele>
        <time>2024-07-11T08:42:14.174Z</time>
      </trkpt>
      <trkpt lat="44.2173" lon="0.70011">
        <ele>158.6</ele>
        <time>2024-07-11T08:43:14.174Z</time>
      </trkpt>
      <trkpt lat="44.21747" lon="0.70004">
        <ele>158.2</ele>
        <time>2024-07-11T08:43:30.174Z</time>
      </trkpt>
      <trkpt lat="44.21782" lon="0.69972">
        <ele>157.7</ele>
        <time>2024-07-11T08:44:10.665Z</time>
      </trkpt>
      <trkpt lat="44.21798" lon="0.69962">
        <ele>157.2</ele>
        <time>2024-07-11T08:44:26.665Z</time>
      </trkpt>
      <trkpt lat="44.21833" lon="0.69929">
        <ele>156.2</ele>
        <time>2024-07-11T08:45:06.665Z</time>
      </trkpt>
      <trkpt lat="44.21843" lon="0.69926">
        <ele>155.7</ele>
        <time>2024-07-11T08:45:14.665Z</time>
      </trkpt>
      <trkpt lat="44.21884" lon="0.69889">
        <ele>154.6</ele>
        <time>2024-07-11T08:45:54.665Z</time>
      </trkpt>
      <trkpt lat="44.21921" lon="0.69841">
        <ele>154.2</ele>
        <time>2024-07-11T08:46:34.665Z</time>
      </trkpt>
      <trkpt lat="44.21932" lon="0.69839">
        <ele>153.4</ele>
        <time>2024-07-11T08:46:42.665Z</time>
      </trkpt>
      <trkpt lat="44.21952" lon="0.69843">
        <ele>151.8</ele>
        <time>2024-07-11T08:46:58.665Z</time>
      </trkpt>
      <trkpt lat="44.2198" lon="0.69862">
        <ele>152</ele>
        <time>2024-07-11T08:47:30.665Z</time>
      </trkpt>
      <trkpt lat="44.22" lon="0.69868">
        <ele>150.9</ele>
        <time>2024-07-11T08:48:02.689Z</time>
      </trkpt>
      <trkpt lat="44.22016" lon="0.69879">
        <ele>151.1</ele>
        <time>2024-07-11T08:48:18.689Z</time>
      </trkpt>
      <trkpt lat="44.2206" lon="0.69926">
        <ele>154.7</ele>
        <time>2024-07-11T08:49:06.689Z</time>
      </trkpt>
      <trkpt lat="44.22092" lon="0.69945">
        <ele>156.9</ele>
        <time>2024-07-11T08:49:38.689Z</time>
      </trkpt>
      <trkpt lat="44.22138" lon="0.69963">
        <ele>161.2</ele>
        <time>2024-07-11T08:50:59.660Z</time>
      </trkpt>
      <trkpt lat="44.22201" lon="0.69736">
        <ele>160.1</ele>
        <time>2024-07-11T08:58:38.744Z</time>
      </trkpt>
      <trkpt lat="44.22204" lon="0.6973">
        <ele>159.8</ele>
        <time>2024-07-11T08:58:42.744Z</time>
      </trkpt>
      <trkpt lat="44.22209" lon="0.69729">
        <ele>159.6</ele>
        <time>2024-07-11T08:58:46.744Z</time>
      </trkpt>
      <trkpt lat="44.22243" lon="0.6975">
        <ele>158.3</ele>
        <time>2024-07-11T08:59:18.744Z</time>
      </trkpt>
      <trkpt lat="44.22271" lon="0.69777">
        <ele>156.2</ele>
        <time>2024-07-11T08:59:50.744Z</time>
      </trkpt>
      <trkpt lat="44.22291" lon="0.69792">
        <ele>155.8</ele>
        <time>2024-07-11T09:00:06.744Z</time>
      </trkpt>
      <trkpt lat="44.22328" lon="0.69823">
        <ele>155.7</ele>
        <time>2024-07-11T09:00:38.744Z</time>
      </trkpt>
      <trkpt lat="44.22361" lon="0.69857">
        <ele>155.9</ele>
        <time>2024-07-11T09:01:10.744Z</time>
      </trkpt>
      <trkpt lat="44.22399" lon="0.69885">
        <ele>157.2</ele>
        <time>2024-07-11T09:01:42.744Z</time>
      </trkpt>
      <trkpt lat="44.22417" lon="0.69902">
        <ele>158</ele>
        <time>2024-07-11T09:01:58.744Z</time>
      </trkpt>
      <trkpt lat="44.22438" lon="0.6993">
        <ele>158.7</ele>
        <time>2024-07-11T09:02:22.744Z</time>
      </trkpt>
      <trkpt lat="44.22441" lon="0.6993">
        <ele>158.8</ele>
        <time>2024-07-11T09:02:26.744Z</time>
      </trkpt>
      <trkpt lat="44.22451" lon="0.69913">
        <ele>159.1</ele>
        <time>2024-07-11T09:02:42.744Z</time>
      </trkpt>
      <trkpt lat="44.22461" lon="0.69892">
        <ele>159.2</ele>
        <time>2024-07-11T09:02:58.744Z</time>
      </trkpt>
      <trkpt lat="44.22488" lon="0.69861">
        <ele>158.7</ele>
        <time>2024-07-11T09:03:30.744Z</time>
      </trkpt>
      <trkpt lat="44.2251" lon="0.69847">
        <ele>158.8</ele>
        <time>2024-07-11T09:03:54.744Z</time>
      </trkpt>
      <trkpt lat="44.22538" lon="0.69825">
        <ele>159</ele>
        <time>2024-07-11T09:05:32.422Z</time>
      </trkpt>
      <trkpt lat="44.22555" lon="0.69811">
        <ele>160.3</ele>
        <time>2024-07-11T09:05:56.422Z</time>
      </trkpt>
      <trkpt lat="44.22576" lon="0.69828">
        <ele>164</ele>
        <time>2024-07-11T09:06:28.422Z</time>
      </trkpt>
      <trkpt lat="44.22614" lon="0.69871">
        <ele>168.1</ele>
        <time>2024-07-11T09:07:16.422Z</time>
      </trkpt>
      <trkpt lat="44.22652" lon="0.69906">
        <ele>166.8</ele>
        <time>2024-07-11T09:08:10.557Z</time>
      </trkpt>
      <trkpt lat="44.22669" lon="0.69908">
        <ele>165.8</ele>
        <time>2024-07-11T09:08:26.557Z</time>
      </trkpt>
      <trkpt lat="44.22686" lon="0.69913">
        <ele>167.3</ele>
        <time>2024-07-11T09:08:42.557Z</time>
      </trkpt>
      <trkpt lat="44.22695" lon="0.69911">
        <ele>167.3</ele>
        <time>2024-07-11T09:08:50.557Z</time>
      </trkpt>
      <trkpt lat="44.2275" lon="0.69919">
        <ele>162.8</ele>
        <time>2024-07-11T09:09:54.557Z</time>
      </trkpt>
      <trkpt lat="44.22756" lon="0.69916">
        <ele>161.9</ele>
        <time>2024-07-11T09:10:02.557Z</time>
      </trkpt>
      <trkpt lat="44.2276" lon="0.6991">
        <ele>161.7</ele>
        <time>2024-07-11T09:10:10.557Z</time>
      </trkpt>
      <trkpt lat="44.22768" lon="0.69905">
        <ele>160.4</ele>
        <time>2024-07-11T09:10:18.557Z</time>
      </trkpt>
      <trkpt lat="44.22786" lon="0.69904">
        <ele>157.3</ele>
        <time>2024-07-11T09:10:34.557Z</time>
      </trkpt>
      <trkpt lat="44.22803" lon="0.69907">
        <ele>155</ele>
        <time>2024-07-11T09:10:50.557Z</time>
      </trkpt>
      <trkpt lat="44.22807" lon="0.69911">
        <ele>154.2</ele>
        <time>2024-07-11T09:10:58.557Z</time>
      </trkpt>
      <trkpt lat="44.22824" lon="0.69913">
        <ele>151.6</ele>
        <time>2024-07-11T09:11:29.090Z</time>
      </trkpt>
      <trkpt lat="44.2283" lon="0.69918">
        <ele>150.4</ele>
        <time>2024-07-11T09:11:37.090Z</time>
      </trkpt>
      <trkpt lat="44.22832" lon="0.6994">
        <ele>146.2</ele>
        <time>2024-07-11T09:11:53.090Z</time>
      </trkpt>
      <trkpt lat="44.2283" lon="0.69954">
        <ele>145.7</ele>
        <time>2024-07-11T09:12:01.090Z</time>
      </trkpt>
      <trkpt lat="44.22834" lon="0.69973">
        <ele>144</ele>
        <time>2024-07-11T09:12:21.090Z</time>
      </trkpt>
      <trkpt lat="44.22858" lon="0.69973">
        <ele>139.7</ele>
        <time>2024-07-11T09:13:25.270Z</time>
      </trkpt>
      <trkpt lat="44.22863" lon="0.69971">
        <ele>138.6</ele>
        <time>2024-07-11T09:13:29.270Z</time>
      </trkpt>
      <trkpt lat="44.22929" lon="0.69989">
        <ele>126</ele>
        <time>2024-07-11T09:14:44.088Z</time>
      </trkpt>
      <trkpt lat="44.22951" lon="0.69984">
        <ele>121.4</ele>
        <time>2024-07-11T09:15:33.104Z</time>
      </trkpt>
      <trkpt lat="44.22956" lon="0.69986">
        <ele>121.1</ele>
        <time>2024-07-11T09:15:37.104Z</time>
      </trkpt>
      <trkpt lat="44.22962" lon="0.69979">
        <ele>119</ele>
        <time>2024-07-11T09:15:49.595Z</time>
      </trkpt>
      <trkpt lat="44.22986" lon="0.69977">
        <ele>114.5</ele>
        <time>2024-07-11T09:16:13.595Z</time>
      </trkpt>
      <trkpt lat="44.2299" lon="0.69985">
        <ele>114.3</ele>
        <time>2024-07-11T09:16:26.184Z</time>
      </trkpt>
      <trkpt lat="44.22996" lon="0.69983">
        <ele>112.7</ele>
        <time>2024-07-11T09:16:34.184Z</time>
      </trkpt>
      <trkpt lat="44.23004" lon="0.69973">
        <ele>110.5</ele>
        <time>2024-07-11T09:16:50.184Z</time>
      </trkpt>
      <trkpt lat="44.23016" lon="0.69965">
        <ele>108</ele>
        <time>2024-07-11T09:17:06.184Z</time>
      </trkpt>
      <trkpt lat="44.23027" lon="0.69964">
        <ele>106.2</ele>
        <time>2024-07-11T09:17:18.184Z</time>
      </trkpt>
      <trkpt lat="44.23031" lon="0.69959">
        <ele>105.3</ele>
        <time>2024-07-11T09:17:22.184Z</time>
      </trkpt>
      <trkpt lat="44.2306" lon="0.69948">
        <ele>101.7</ele>
        <time>2024-07-11T09:17:46.184Z</time>
      </trkpt>
      <trkpt lat="44.23088" lon="0.69929">
        <ele>99</ele>
        <time>2024-07-11T09:18:18.184Z</time>
      </trkpt>
      <trkpt lat="44.23097" lon="0.69926">
        <ele>98.4</ele>
        <time>2024-07-11T09:18:26.184Z</time>
      </trkpt>
      <trkpt lat="44.2311" lon="0.69913">
        <ele>96.4</ele>
        <time>2024-07-11T09:18:42.184Z</time>
      </trkpt>
      <trkpt lat="44.23122" lon="0.69905">
        <ele>95.5</ele>
        <time>2024-07-11T09:19:31.189Z</time>
      </trkpt>
      <trkpt lat="44.23116" lon="0.69909">
        <ele>95.9</ele>
        <time>2024-07-11T09:19:59.619Z</time>
      </trkpt>
      <trkpt lat="44.23115" lon="0.69906">
        <ele>95.5</ele>
        <time>2024-07-11T09:20:42.141Z</time>
      </trkpt>
      <trkpt lat="44.23183" lon="0.6986">
        <ele>87.2</ele>
        <time>2024-07-11T09:22:03.101Z</time>
      </trkpt>
      <trkpt lat="44.23192" lon="0.69849">
        <ele>85.3</ele>
        <time>2024-07-11T09:22:15.595Z</time>
      </trkpt>
      <trkpt lat="44.23194" lon="0.69839">
        <ele>84.4</ele>
        <time>2024-07-11T09:22:23.596Z</time>
      </trkpt>
      <trkpt lat="44.23194" lon="0.69815">
        <ele>84.7</ele>
        <time>2024-07-11T09:22:39.595Z</time>
      </trkpt>
      <trkpt lat="44.23206" lon="0.698">
        <ele>85.2</ele>
        <time>2024-07-11T09:22:55.595Z</time>
      </trkpt>
      <trkpt lat="44.2321" lon="0.69801">
        <ele>84.9</ele>
        <time>2024-07-11T09:22:59.595Z</time>
      </trkpt>
      <trkpt lat="44.23226" lon="0.69793">
        <ele>85.3</ele>
        <time>2024-07-11T09:23:15.595Z</time>
      </trkpt>
      <trkpt lat="44.23246" lon="0.69792">
        <ele>85.1</ele>
        <time>2024-07-11T09:23:31.596Z</time>
      </trkpt>
      <trkpt lat="44.2325" lon="0.69796">
        <ele>84.3</ele>
        <time>2024-07-11T09:23:47.691Z</time>
      </trkpt>
      <trkpt lat="44.2327" lon="0.69802">
        <ele>82.8</ele>
        <time>2024-07-11T09:25:19.950Z</time>
      </trkpt>
      <trkpt lat="44.23267" lon="0.69801">
        <ele>83.1</ele>
        <time>2024-07-11T09:25:43.975Z</time>
      </trkpt>
      <trkpt lat="44.23313" lon="0.69807">
        <ele>80.2</ele>
        <time>2024-07-11T09:26:37.472Z</time>
      </trkpt>
      <trkpt lat="44.23331" lon="0.69803">
        <ele>78.5</ele>
        <time>2024-07-11T09:26:53.472Z</time>
      </trkpt>
      <trkpt lat="44.23385" lon="0.69755">
        <ele>75.7</ele>
        <time>2024-07-11T09:27:57.472Z</time>
      </trkpt>
      <trkpt lat="44.23441" lon="0.69689">
        <ele>74.6</ele>
        <time>2024-07-11T09:29:07.651Z</time>
      </trkpt>
      <trkpt lat="44.23456" lon="0.69676">
        <ele>74.1</ele>
        <time>2024-07-11T09:29:23.651Z</time>
      </trkpt>
      <trkpt lat="44.23486" lon="0.69647">
        <ele>73.1</ele>
        <time>2024-07-11T09:29:47.651Z</time>
      </trkpt>
      <trkpt lat="44.23476" lon="0.69645">
        <ele>73</ele>
        <time>2024-07-11T09:29:51.651Z</time>
      </trkpt>
      <trkpt lat="44.23462" lon="0.69633">
        <ele>73.9</ele>
        <time>2024-07-11T09:30:07.651Z</time>
      </trkpt>
      <trkpt lat="44.23459" lon="0.69611">
        <ele>74.5</ele>
        <time>2024-07-11T09:30:23.651Z</time>
      </trkpt>
      <trkpt lat="44.23457" lon="0.69516">
        <ele>73.4</ele>
        <time>2024-07-11T09:31:27.651Z</time>
      </trkpt>
      <trkpt lat="44.23442" lon="0.69484">
        <ele>73</ele>
        <time>2024-07-11T09:31:59.651Z</time>
      </trkpt>
      <trkpt lat="44.23419" lon="0.69446">
        <ele>73.9</ele>
        <time>2024-07-11T09:32:31.651Z</time>
      </trkpt>
      <trkpt lat="44.23396" lon="0.6939">
        <ele>73.1</ele>
        <time>2024-07-11T09:33:19.651Z</time>
      </trkpt>
      <trkpt lat="44.23387" lon="0.69345">
        <ele>72.7</ele>
        <time>2024-07-11T09:33:51.651Z</time>
      </trkpt>
      <trkpt lat="44.23382" lon="0.69299">
        <ele>72.4</ele>
        <time>2024-07-11T09:34:23.651Z</time>
      </trkpt>
      <trkpt lat="44.2338" lon="0.69254">
        <ele>72.7</ele>
        <time>2024-07-11T09:34:55.651Z</time>
      </trkpt>
      <trkpt lat="44.23376" lon="0.69231">
        <ele>72.6</ele>
        <time>2024-07-11T09:35:11.651Z</time>
      </trkpt>
      <trkpt lat="44.23378" lon="0.69184">
        <ele>72</ele>
        <time>2024-07-11T09:35:43.651Z</time>
      </trkpt>
      <trkpt lat="44.23389" lon="0.69097">
        <ele>71</ele>
        <time>2024-07-11T09:36:47.651Z</time>
      </trkpt>
      <trkpt lat="44.23371" lon="0.69018">
        <ele>71.9</ele>
        <time>2024-07-11T09:38:23.264Z</time>
      </trkpt>
      <trkpt lat="44.23363" lon="0.6895">
        <ele>71.1</ele>
        <time>2024-07-11T09:39:11.264Z</time>
      </trkpt>
      <trkpt lat="44.23347" lon="0.68876">
        <ele>71.5</ele>
        <time>2024-07-11T09:39:59.264Z</time>
      </trkpt>
      <trkpt lat="44.23333" lon="0.68829">
        <ele>70.9</ele>
        <time>2024-07-11T09:40:31.264Z</time>
      </trkpt>
      <trkpt lat="44.23328" lon="0.68798">
        <ele>70.5</ele>
        <time>2024-07-11T09:40:55.264Z</time>
      </trkpt>
      <trkpt lat="44.23325" lon="0.68792">
        <ele>70.6</ele>
        <time>2024-07-11T09:41:32.379Z</time>
      </trkpt>
      <trkpt lat="44.23312" lon="0.68635">
        <ele>71</ele>
        <time>2024-07-11T09:43:20.379Z</time>
      </trkpt>
      <trkpt lat="44.23316" lon="0.68593">
        <ele>69.5</ele>
        <time>2024-07-11T09:43:48.379Z</time>
      </trkpt>
      <trkpt lat="44.23313" lon="0.68579">
        <ele>69.3</ele>
        <time>2024-07-11T09:43:56.379Z</time>
      </trkpt>
      <trkpt lat="44.23315" lon="0.68569">
        <ele>68.8</ele>
        <time>2024-07-11T09:44:04.379Z</time>
      </trkpt>
      <trkpt lat="44.2331" lon="0.68557">
        <ele>68.7</ele>
        <time>2024-07-11T09:44:12.379Z</time>
      </trkpt>
      <trkpt lat="44.23309" lon="0.68545">
        <ele>68.4</ele>
        <time>2024-07-11T09:44:20.379Z</time>
      </trkpt>
      <trkpt lat="44.23307" lon="0.68544">
        <ele>68.5</ele>
        <time>2024-07-11T09:44:24.379Z</time>
      </trkpt>
      <trkpt lat="44.23309" lon="0.68539">
        <ele>68.3</ele>
        <time>2024-07-11T09:44:32.379Z</time>
      </trkpt>
      <trkpt lat="44.23306" lon="0.68529">
        <ele>68</ele>
        <time>2024-07-11T09:44:40.379Z</time>
      </trkpt>
      <trkpt lat="44.233" lon="0.6852">
        <ele>68.5</ele>
        <time>2024-07-11T09:44:48.379Z</time>
      </trkpt>
      <trkpt lat="44.23296" lon="0.68493">
        <ele>68.2</ele>
        <time>2024-07-11T09:45:10.508Z</time>
      </trkpt>
      <trkpt lat="44.23282" lon="0.68452">
        <ele>67.5</ele>
        <time>2024-07-11T09:45:42.508Z</time>
      </trkpt>
      <trkpt lat="44.23237" lon="0.68356">
        <ele>68.8</ele>
        <time>2024-07-11T09:46:46.508Z</time>
      </trkpt>
      <trkpt lat="44.23223" lon="0.68308">
        <ele>68.1</ele>
        <time>2024-07-11T09:47:18.508Z</time>
      </trkpt>
      <trkpt lat="44.23201" lon="0.68228">
        <ele>68.2</ele>
        <time>2024-07-11T09:48:06.508Z</time>
      </trkpt>
      <trkpt lat="44.23215" lon="0.68213">
        <ele>68</ele>
        <time>2024-07-11T09:48:14.508Z</time>
      </trkpt>
    </trkseg>
  </trk>
</gpx>